sensor_id;sensor_type;location;lat;lon;timestamp;P1;durP1;ratioP1;P2;durP2;ratioP2
4686;SDS011;2357;47.316;-1.348;2024-02-21T00:02:10;1.17;;;0.60;;
4686;SDS011;2357;47.316;-1.348;2024-02-21T00:04:36;0.60;;;0.60;;
4686;SDS011;2357;47.316;-1.348;2024-02-21T00:07:03;0.90;;;0.60;;
4686;SDS011;2357;47.316;-1.348;2024-02-21T00:09:29;1.27;;;0.70;;
4686;SDS011;2357;47.316;-1.348;2024-02-21T00:11:55;0.60;;;0.60;;
4686;SDS011;2357;47.316;-1.348;2024-02-21T00:14:22;1.53;;;1.20;;
4686;SDS011;2357;47.316;-1.348;2024-02-21T00:16:48;0.60;;;0.60;;
4686;SDS011;2357;47.316;-1.348;2024-02-21T00:19:14;0.93;;;0.83;;
4686;SDS011;2357;47.316;-1.348;2024-02-21T00:21:40;2.30;;;0.60;;
4686;SDS011;2357;47.316;-1.348;2024-02-21T00:24:06;1.07;;;0.80;;
4686;SDS011;2357;47.316;-1.348;2024-02-21T00:26:32;1.90;;;0.80;;
4686;SDS011;2357;47.316;-1.348;2024-02-21T00:28:58;1.13;;;0.70;;
4686;SDS011;2357;47.316;-1.348;2024-02-21T00:31:24;0.63;;;0.63;;
4686;SDS011;2357;47.316;-1.348;2024-02-21T00:33:50;4.27;;;1.20;;
4686;SDS011;2357;47.316;-1.348;2024-02-21T00:36:17;1.37;;;0.80;;
4686;SDS011;2357;47.316;-1.348;2024-02-21T00:38:43;1.63;;;0.70;;
4686;SDS011;2357;47.316;-1.348;2024-02-21T00:41:09;2.30;;;0.87;;
4686;SDS011;2357;47.316;-1.348;2024-02-21T00:43:35;1.10;;;0.80;;
4686;SDS011;2357;47.316;-1.348;2024-02-21T00:46:01;0.63;;;0.63;;
4686;SDS011;2357;47.316;-1.348;2024-02-21T00:48:27;0.70;;;0.70;;
4686;SDS011;2357;47.316;-1.348;2024-02-21T00:50:53;0.60;;;0.60;;
4686;SDS011;2357;47.316;-1.348;2024-02-21T00:53:19;0.57;;;0.57;;
4686;SDS011;2357;47.316;-1.348;2024-02-21T00:55:45;0.50;;;0.50;;
4686;SDS011;2357;47.316;-1.348;2024-02-21T00:58:11;0.70;;;0.70;;
4686;SDS011;2357;47.316;-1.348;2024-02-21T01:00:37;0.50;;;0.50;;
4686;SDS011;2357;47.316;-1.348;2024-02-21T01:03:03;1.03;;;0.60;;
4686;SDS011;2357;47.316;-1.348;2024-02-21T01:05:29;4.20;;;0.67;;
4686;SDS011;2357;47.316;-1.348;2024-02-21T01:07:55;1.90;;;0.70;;
4686;SDS011;2357;47.316;-1.348;2024-02-21T01:10:21;0.63;;;0.50;;
4686;SDS011;2357;47.316;-1.348;2024-02-21T01:12:47;0.87;;;0.50;;
4686;SDS011;2357;47.316;-1.348;2024-02-21T01:15:13;3.00;;;0.60;;
4686;SDS011;2357;47.316;-1.348;2024-02-21T01:17:39;0.60;;;0.60;;
4686;SDS011;2357;47.316;-1.348;2024-02-21T01:20:06;0.50;;;0.50;;
4686;SDS011;2357;47.316;-1.348;2024-02-21T01:22:32;0.50;;;0.50;;
4686;SDS011;2357;47.316;-1.348;2024-02-21T01:24:58;1.17;;;0.60;;
4686;SDS011;2357;47.316;-1.348;2024-02-21T01:27:24;0.60;;;0.60;;
4686;SDS011;2357;47.316;-1.348;2024-02-21T01:29:50;0.40;;;0.40;;
4686;SDS011;2357;47.316;-1.348;2024-02-21T01:32:16;0.57;;;0.57;;
4686;SDS011;2357;47.316;-1.348;2024-02-21T01:34:42;0.50;;;0.50;;
4686;SDS011;2357;47.316;-1.348;2024-02-21T01:37:08;1.33;;;1.10;;
4686;SDS011;2357;47.316;-1.348;2024-02-21T01:39:34;0.50;;;0.50;;
4686;SDS011;2357;47.316;-1.348;2024-02-21T01:42:00;0.57;;;0.50;;
4686;SDS011;2357;47.316;-1.348;2024-02-21T01:44:26;5.57;;;0.70;;
4686;SDS011;2357;47.316;-1.348;2024-02-21T01:46:52;1.47;;;0.50;;
4686;SDS011;2357;47.316;-1.348;2024-02-21T01:49:19;0.60;;;0.60;;
4686;SDS011;2357;47.316;-1.348;2024-02-21T01:51:45;0.70;;;0.47;;
4686;SDS011;2357;47.316;-1.348;2024-02-21T01:54:11;0.70;;;0.70;;
4686;SDS011;2357;47.316;-1.348;2024-02-21T01:56:39;1.00;;;0.50;;
4686;SDS011;2357;47.316;-1.348;2024-02-21T01:59:05;0.50;;;0.50;;
4686;SDS011;2357;47.316;-1.348;2024-02-21T02:01:31;0.50;;;0.50;;
4686;SDS011;2357;47.316;-1.348;2024-02-21T02:03:57;0.97;;;0.50;;
4686;SDS011;2357;47.316;-1.348;2024-02-21T02:06:24;2.10;;;0.70;;
4686;SDS011;2357;47.316;-1.348;2024-02-21T02:08:51;2.60;;;0.57;;
4686;SDS011;2357;47.316;-1.348;2024-02-21T02:11:17;0.53;;;0.53;;
4686;SDS011;2357;47.316;-1.348;2024-02-21T02:13:43;1.30;;;0.70;;
4686;SDS011;2357;47.316;-1.348;2024-02-21T02:16:09;0.80;;;0.80;;
4686;SDS011;2357;47.316;-1.348;2024-02-21T02:18:36;0.40;;;0.40;;
4686;SDS011;2357;47.316;-1.348;2024-02-21T02:21:03;0.67;;;0.57;;
4686;SDS011;2357;47.316;-1.348;2024-02-21T02:23:30;0.53;;;0.53;;
4686;SDS011;2357;47.316;-1.348;2024-02-21T02:25:57;2.63;;;0.50;;
4686;SDS011;2357;47.316;-1.348;2024-02-21T02:28:23;0.50;;;0.50;;
4686;SDS011;2357;47.316;-1.348;2024-02-21T02:30:49;0.50;;;0.50;;
4686;SDS011;2357;47.316;-1.348;2024-02-21T02:33:15;1.27;;;0.60;;
4686;SDS011;2357;47.316;-1.348;2024-02-21T02:35:44;1.90;;;0.83;;
4686;SDS011;2357;47.316;-1.348;2024-02-21T02:38:11;1.10;;;0.80;;
4686;SDS011;2357;47.316;-1.348;2024-02-21T02:40:38;7.70;;;1.07;;
4686;SDS011;2357;47.316;-1.348;2024-02-21T02:43:05;0.50;;;0.50;;
4686;SDS011;2357;47.316;-1.348;2024-02-21T02:45:32;0.60;;;0.53;;
4686;SDS011;2357;47.316;-1.348;2024-02-21T02:47:58;0.70;;;0.70;;
4686;SDS011;2357;47.316;-1.348;2024-02-21T02:50:25;1.63;;;0.60;;
4686;SDS011;2357;47.316;-1.348;2024-02-21T02:52:51;0.70;;;0.60;;
4686;SDS011;2357;47.316;-1.348;2024-02-21T02:55:17;2.53;;;0.80;;
4686;SDS011;2357;47.316;-1.348;2024-02-21T02:57:43;3.03;;;0.80;;
4686;SDS011;2357;47.316;-1.348;2024-02-21T03:00:13;1.43;;;0.70;;
4686;SDS011;2357;47.316;-1.348;2024-02-21T03:02:39;1.33;;;0.70;;
4686;SDS011;2357;47.316;-1.348;2024-02-21T03:05:15;3.97;;;0.90;;
4686;SDS011;2357;47.316;-1.348;2024-02-21T03:07:42;1.17;;;0.93;;
4686;SDS011;2357;47.316;-1.348;2024-02-21T03:10:08;1.27;;;0.83;;
4686;SDS011;2357;47.316;-1.348;2024-02-21T03:12:34;2.80;;;0.80;;
4686;SDS011;2357;47.316;-1.348;2024-02-21T03:15:01;1.17;;;0.70;;
4686;SDS011;2357;47.316;-1.348;2024-02-21T03:17:27;0.70;;;0.70;;
4686;SDS011;2357;47.316;-1.348;2024-02-21T03:19:53;0.93;;;0.70;;
4686;SDS011;2357;47.316;-1.348;2024-02-21T03:22:20;0.70;;;0.70;;
4686;SDS011;2357;47.316;-1.348;2024-02-21T03:24:46;0.70;;;0.70;;
4686;SDS011;2357;47.316;-1.348;2024-02-21T03:27:12;0.70;;;0.70;;
4686;SDS011;2357;47.316;-1.348;2024-02-21T03:29:38;2.00;;;0.80;;
4686;SDS011;2357;47.316;-1.348;2024-02-21T03:32:04;1.83;;;1.00;;
4686;SDS011;2357;47.316;-1.348;2024-02-21T03:34:30;2.70;;;1.00;;
4686;SDS011;2357;47.316;-1.348;2024-02-21T03:36:56;2.33;;;0.83;;
4686;SDS011;2357;47.316;-1.348;2024-02-21T03:39:22;2.30;;;1.13;;
4686;SDS011;2357;47.316;-1.348;2024-02-21T03:41:48;7.97;;;1.23;;
4686;SDS011;2357;47.316;-1.348;2024-02-21T03:44:14;1.73;;;0.80;;
4686;SDS011;2357;47.316;-1.348;2024-02-21T03:46:40;0.90;;;0.90;;
4686;SDS011;2357;47.316;-1.348;2024-02-21T03:49:06;3.57;;;1.20;;
4686;SDS011;2357;47.316;-1.348;2024-02-21T03:51:32;0.90;;;0.80;;
4686;SDS011;2357;47.316;-1.348;2024-02-21T03:53:58;1.23;;;1.13;;
4686;SDS011;2357;47.316;-1.348;2024-02-21T03:56:24;1.10;;;1.00;;
4686;SDS011;2357;47.316;-1.348;2024-02-21T03:58:50;1.00;;;0.90;;
4686;SDS011;2357;47.316;-1.348;2024-02-21T04:01:16;1.13;;;1.13;;
4686;SDS011;2357;47.316;-1.348;2024-02-21T04:03:43;2.40;;;1.37;;
4686;SDS011;2357;47.316;-1.348;2024-02-21T04:06:09;1.10;;;1.10;;
4686;SDS011;2357;47.316;-1.348;2024-02-21T04:08:35;4.57;;;1.77;;
4686;SDS011;2357;47.316;-1.348;2024-02-21T04:11:01;1.30;;;1.27;;
4686;SDS011;2357;47.316;-1.348;2024-02-21T04:13:28;1.40;;;1.27;;
4686;SDS011;2357;47.316;-1.348;2024-02-21T04:15:54;1.83;;;1.43;;
4686;SDS011;2357;47.316;-1.348;2024-02-21T04:18:20;1.70;;;1.27;;
4686;SDS011;2357;47.316;-1.348;2024-02-21T04:20:46;1.90;;;1.80;;
4686;SDS011;2357;47.316;-1.348;2024-02-21T04:23:12;8.83;;;2.37;;
4686;SDS011;2357;47.316;-1.348;2024-02-21T04:25:39;2.87;;;2.00;;
4686;SDS011;2357;47.316;-1.348;2024-02-21T04:28:05;6.10;;;2.40;;
4686;SDS011;2357;47.316;-1.348;2024-02-21T04:30:31;3.23;;;2.77;;
4686;SDS011;2357;47.316;-1.348;2024-02-21T04:32:57;3.13;;;2.83;;
4686;SDS011;2357;47.316;-1.348;2024-02-21T04:35:23;2.50;;;1.70;;
4686;SDS011;2357;47.316;-1.348;2024-02-21T04:37:49;2.00;;;1.90;;
4686;SDS011;2357;47.316;-1.348;2024-02-21T04:40:15;2.73;;;2.53;;
4686;SDS011;2357;47.316;-1.348;2024-02-21T04:42:42;2.93;;;2.10;;
4686;SDS011;2357;47.316;-1.348;2024-02-21T04:45:08;2.00;;;1.90;;
4686;SDS011;2357;47.316;-1.348;2024-02-21T04:47:34;2.60;;;2.40;;
4686;SDS011;2357;47.316;-1.348;2024-02-21T04:50:00;2.90;;;2.20;;
4686;SDS011;2357;47.316;-1.348;2024-02-21T04:52:26;5.50;;;2.20;;
4686;SDS011;2357;47.316;-1.348;2024-02-21T04:54:52;2.37;;;2.20;;
4686;SDS011;2357;47.316;-1.348;2024-02-21T04:57:18;2.30;;;2.20;;
4686;SDS011;2357;47.316;-1.348;2024-02-21T04:59:44;2.93;;;2.20;;
4686;SDS011;2357;47.316;-1.348;2024-02-21T05:02:12;2.90;;;2.30;;
4686;SDS011;2357;47.316;-1.348;2024-02-21T05:04:38;5.80;;;2.30;;
4686;SDS011;2357;47.316;-1.348;2024-02-21T05:07:06;2.90;;;2.70;;
4686;SDS011;2357;47.316;-1.348;2024-02-21T05:09:32;4.20;;;3.20;;
4686;SDS011;2357;47.316;-1.348;2024-02-21T05:11:58;2.63;;;2.43;;
4686;SDS011;2357;47.316;-1.348;2024-02-21T05:14:24;2.33;;;2.13;;
4686;SDS011;2357;47.316;-1.348;2024-02-21T05:16:51;7.50;;;2.73;;
4686;SDS011;2357;47.316;-1.348;2024-02-21T05:19:17;3.73;;;2.73;;
4686;SDS011;2357;47.316;-1.348;2024-02-21T05:21:43;4.27;;;2.17;;
4686;SDS011;2357;47.316;-1.348;2024-02-21T05:24:09;4.07;;;2.30;;
4686;SDS011;2357;47.316;-1.348;2024-02-21T05:26:35;3.43;;;3.00;;
4686;SDS011;2357;47.316;-1.348;2024-02-21T05:29:01;4.30;;;2.40;;
4686;SDS011;2357;47.316;-1.348;2024-02-21T05:31:42;3.03;;;2.53;;
4686;SDS011;2357;47.316;-1.348;2024-02-21T05:34:08;6.30;;;2.87;;
4686;SDS011;2357;47.316;-1.348;2024-02-21T05:36:34;4.57;;;2.87;;
4686;SDS011;2357;47.316;-1.348;2024-02-21T05:39:00;5.63;;;3.13;;
4686;SDS011;2357;47.316;-1.348;2024-02-21T05:41:26;6.73;;;2.60;;
4686;SDS011;2357;47.316;-1.348;2024-02-21T05:43:52;5.80;;;3.33;;
4686;SDS011;2357;47.316;-1.348;2024-02-21T05:46:21;6.93;;;3.17;;
4686;SDS011;2357;47.316;-1.348;2024-02-21T05:48:47;3.80;;;2.83;;
4686;SDS011;2357;47.316;-1.348;2024-02-21T05:51:13;3.23;;;2.93;;
4686;SDS011;2357;47.316;-1.348;2024-02-21T05:53:39;2.43;;;2.20;;
4686;SDS011;2357;47.316;-1.348;2024-02-21T05:56:14;3.33;;;3.03;;
4686;SDS011;2357;47.316;-1.348;2024-02-21T05:58:42;2.87;;;2.67;;
4686;SDS011;2357;47.316;-1.348;2024-02-21T06:01:08;3.70;;;2.73;;
4686;SDS011;2357;47.316;-1.348;2024-02-21T06:03:34;2.50;;;2.30;;
4686;SDS011;2357;47.316;-1.348;2024-02-21T06:06:01;5.50;;;3.17;;
4686;SDS011;2357;47.316;-1.348;2024-02-21T06:08:27;2.73;;;2.40;;
4686;SDS011;2357;47.316;-1.348;2024-02-21T06:10:53;4.97;;;2.80;;
4686;SDS011;2357;47.316;-1.348;2024-02-21T06:13:28;4.70;;;2.57;;
4686;SDS011;2357;47.316;-1.348;2024-02-21T06:15:54;7.40;;;3.67;;
4686;SDS011;2357;47.316;-1.348;2024-02-21T06:18:20;6.63;;;2.93;;
4686;SDS011;2357;47.316;-1.348;2024-02-21T06:20:46;8.00;;;3.47;;
4686;SDS011;2357;47.316;-1.348;2024-02-21T06:23:13;2.80;;;2.33;;
4686;SDS011;2357;47.316;-1.348;2024-02-21T06:25:40;4.83;;;3.00;;
4686;SDS011;2357;47.316;-1.348;2024-02-21T06:28:06;8.73;;;3.53;;
4686;SDS011;2357;47.316;-1.348;2024-02-21T06:30:32;2.73;;;2.40;;
4686;SDS011;2357;47.316;-1.348;2024-02-21T06:32:58;3.43;;;3.13;;
4686;SDS011;2357;47.316;-1.348;2024-02-21T06:35:24;7.30;;;3.33;;
4686;SDS011;2357;47.316;-1.348;2024-02-21T06:37:51;5.50;;;3.17;;
4686;SDS011;2357;47.316;-1.348;2024-02-21T06:40:17;9.10;;;3.43;;
4686;SDS011;2357;47.316;-1.348;2024-02-21T06:42:43;4.27;;;2.50;;
4686;SDS011;2357;47.316;-1.348;2024-02-21T06:45:09;3.47;;;2.60;;
4686;SDS011;2357;47.316;-1.348;2024-02-21T06:47:35;9.73;;;2.83;;
4686;SDS011;2357;47.316;-1.348;2024-02-21T06:50:01;3.33;;;2.57;;
4686;SDS011;2357;47.316;-1.348;2024-02-21T06:52:27;3.57;;;2.03;;
4686;SDS011;2357;47.316;-1.348;2024-02-21T06:54:53;7.50;;;2.97;;
4686;SDS011;2357;47.316;-1.348;2024-02-21T06:57:19;3.57;;;2.13;;
4686;SDS011;2357;47.316;-1.348;2024-02-21T06:59:45;3.30;;;1.83;;
4686;SDS011;2357;47.316;-1.348;2024-02-21T07:02:11;6.03;;;2.07;;
4686;SDS011;2357;47.316;-1.348;2024-02-21T07:04:37;2.60;;;2.40;;
4686;SDS011;2357;47.316;-1.348;2024-02-21T07:07:03;6.87;;;2.00;;
4686;SDS011;2357;47.316;-1.348;2024-02-21T07:09:29;4.27;;;1.80;;
4686;SDS011;2357;47.316;-1.348;2024-02-21T07:11:57;6.30;;;1.97;;
4686;SDS011;2357;47.316;-1.348;2024-02-21T07:14:23;2.20;;;2.00;;
4686;SDS011;2357;47.316;-1.348;2024-02-21T07:16:49;3.40;;;1.93;;
4686;SDS011;2357;47.316;-1.348;2024-02-21T07:19:15;3.03;;;1.87;;
4686;SDS011;2357;47.316;-1.348;2024-02-21T07:21:41;3.50;;;1.87;;
4686;SDS011;2357;47.316;-1.348;2024-02-21T07:24:07;6.70;;;2.17;;
4686;SDS011;2357;47.316;-1.348;2024-02-21T07:26:33;4.47;;;1.80;;
4686;SDS011;2357;47.316;-1.348;2024-02-21T07:28:59;4.00;;;1.60;;
4686;SDS011;2357;47.316;-1.348;2024-02-21T07:31:25;4.47;;;2.33;;
4686;SDS011;2357;47.316;-1.348;2024-02-21T07:33:51;4.33;;;1.80;;
4686;SDS011;2357;47.316;-1.348;2024-02-21T07:36:25;8.80;;;2.70;;
4686;SDS011;2357;47.316;-1.348;2024-02-21T07:38:51;21.57;;;3.43;;
4686;SDS011;2357;47.316;-1.348;2024-02-21T07:41:17;2.43;;;1.60;;
4686;SDS011;2357;47.316;-1.348;2024-02-21T07:43:43;5.73;;;2.73;;
4686;SDS011;2357;47.316;-1.348;2024-02-21T07:46:09;2.80;;;1.60;;
4686;SDS011;2357;47.316;-1.348;2024-02-21T07:48:35;2.47;;;2.27;;
4686;SDS011;2357;47.316;-1.348;2024-02-21T07:51:01;6.87;;;2.53;;
4686;SDS011;2357;47.316;-1.348;2024-02-21T07:53:27;3.70;;;1.97;;
4686;SDS011;2357;47.316;-1.348;2024-02-21T07:55:53;9.50;;;2.80;;
4686;SDS011;2357;47.316;-1.348;2024-02-21T07:58:19;6.33;;;2.23;;
4686;SDS011;2357;47.316;-1.348;2024-02-21T08:00:45;2.40;;;2.20;;
4686;SDS011;2357;47.316;-1.348;2024-02-21T08:03:11;4.07;;;2.20;;
4686;SDS011;2357;47.316;-1.348;2024-02-21T08:05:37;6.13;;;2.97;;
4686;SDS011;2357;47.316;-1.348;2024-02-21T08:08:03;7.60;;;2.60;;
4686;SDS011;2357;47.316;-1.348;2024-02-21T08:10:29;6.33;;;2.43;;
4686;SDS011;2357;47.316;-1.348;2024-02-21T08:12:56;5.47;;;2.23;;
4686;SDS011;2357;47.316;-1.348;2024-02-21T08:15:22;7.20;;;2.50;;
4686;SDS011;2357;47.316;-1.348;2024-02-21T08:17:53;8.63;;;2.47;;
4686;SDS011;2357;47.316;-1.348;2024-02-21T08:20:23;3.20;;;2.53;;
4686;SDS011;2357;47.316;-1.348;2024-02-21T08:22:49;10.70;;;2.57;;
4686;SDS011;2357;47.316;-1.348;2024-02-21T08:25:15;6.53;;;2.73;;
4686;SDS011;2357;47.316;-1.348;2024-02-21T08:27:41;8.40;;;2.70;;
4686;SDS011;2357;47.316;-1.348;2024-02-21T08:30:08;7.37;;;2.40;;
4686;SDS011;2357;47.316;-1.348;2024-02-21T08:32:34;6.10;;;3.10;;
4686;SDS011;2357;47.316;-1.348;2024-02-21T08:35:01;2.97;;;2.57;;
4686;SDS011;2357;47.316;-1.348;2024-02-21T08:37:28;9.93;;;2.77;;
4686;SDS011;2357;47.316;-1.348;2024-02-21T08:39:54;9.07;;;3.07;;
4686;SDS011;2357;47.316;-1.348;2024-02-21T08:42:20;13.63;;;2.60;;
4686;SDS011;2357;47.316;-1.348;2024-02-21T08:44:46;16.03;;;3.30;;
4686;SDS011;2357;47.316;-1.348;2024-02-21T08:47:12;9.20;;;2.63;;
4686;SDS011;2357;47.316;-1.348;2024-02-21T08:49:38;9.63;;;3.20;;
4686;SDS011;2357;47.316;-1.348;2024-02-21T08:52:04;3.50;;;2.80;;
4686;SDS011;2357;47.316;-1.348;2024-02-21T08:54:30;9.57;;;3.93;;
4686;SDS011;2357;47.316;-1.348;2024-02-21T08:56:57;14.70;;;3.80;;
4686;SDS011;2357;47.316;-1.348;2024-02-21T08:59:23;8.27;;;3.40;;
4686;SDS011;2357;47.316;-1.348;2024-02-21T09:01:51;8.13;;;3.80;;
4686;SDS011;2357;47.316;-1.348;2024-02-21T09:04:18;15.30;;;3.50;;
4686;SDS011;2357;47.316;-1.348;2024-02-21T09:06:44;9.70;;;3.70;;
4686;SDS011;2357;47.316;-1.348;2024-02-21T09:09:11;12.23;;;3.77;;
4686;SDS011;2357;47.316;-1.348;2024-02-21T09:11:37;12.17;;;3.50;;
4686;SDS011;2357;47.316;-1.348;2024-02-21T09:14:04;5.20;;;3.13;;
4686;SDS011;2357;47.316;-1.348;2024-02-21T09:16:32;10.83;;;3.03;;
4686;SDS011;2357;47.316;-1.348;2024-02-21T09:18:58;11.00;;;3.53;;
4686;SDS011;2357;47.316;-1.348;2024-02-21T09:21:25;7.50;;;3.70;;
4686;SDS011;2357;47.316;-1.348;2024-02-21T09:23:53;9.63;;;3.40;;
4686;SDS011;2357;47.316;-1.348;2024-02-21T09:26:19;14.50;;;3.80;;
4686;SDS011;2357;47.316;-1.348;2024-02-21T09:28:45;9.93;;;3.30;;
4686;SDS011;2357;47.316;-1.348;2024-02-21T09:31:11;7.80;;;3.53;;
4686;SDS011;2357;47.316;-1.348;2024-02-21T09:33:37;16.60;;;3.63;;
4686;SDS011;2357;47.316;-1.348;2024-02-21T09:36:03;6.83;;;2.70;;
4686;SDS011;2357;47.316;-1.348;2024-02-21T09:38:30;15.23;;;3.57;;
4686;SDS011;2357;47.316;-1.348;2024-02-21T09:41:00;13.53;;;3.57;;
4686;SDS011;2357;47.316;-1.348;2024-02-21T09:43:29;10.60;;;3.00;;
4686;SDS011;2357;47.316;-1.348;2024-02-21T09:45:55;12.57;;;3.60;;
4686;SDS011;2357;47.316;-1.348;2024-02-21T09:50:53;14.90;;;2.93;;
4686;SDS011;2357;47.316;-1.348;2024-02-21T09:53:20;5.33;;;3.20;;
4686;SDS011;2357;47.316;-1.348;2024-02-21T09:55:47;7.10;;;2.83;;
4686;SDS011;2357;47.316;-1.348;2024-02-21T09:58:14;22.10;;;3.63;;
4686;SDS011;2357;47.316;-1.348;2024-02-21T10:00:40;16.20;;;3.83;;
4686;SDS011;2357;47.316;-1.348;2024-02-21T10:03:06;10.23;;;3.77;;
4686;SDS011;2357;47.316;-1.348;2024-02-21T10:05:34;11.33;;;3.73;;
4686;SDS011;2357;47.316;-1.348;2024-02-21T10:08:00;12.03;;;3.60;;
4686;SDS011;2357;47.316;-1.348;2024-02-21T10:10:26;19.73;;;4.20;;
4686;SDS011;2357;47.316;-1.348;2024-02-21T10:12:54;11.37;;;3.53;;
4686;SDS011;2357;47.316;-1.348;2024-02-21T10:15:21;9.37;;;3.20;;
4686;SDS011;2357;47.316;-1.348;2024-02-21T10:17:57;13.10;;;4.23;;
4686;SDS011;2357;47.316;-1.348;2024-02-21T10:20:23;8.73;;;3.43;;
4686;SDS011;2357;47.316;-1.348;2024-02-21T10:22:59;11.77;;;3.57;;
4686;SDS011;2357;47.316;-1.348;2024-02-21T10:25:26;10.80;;;3.60;;
4686;SDS011;2357;47.316;-1.348;2024-02-21T10:27:52;14.27;;;4.23;;
4686;SDS011;2357;47.316;-1.348;2024-02-21T10:30:19;10.33;;;3.57;;
4686;SDS011;2357;47.316;-1.348;2024-02-21T10:32:51;9.90;;;3.80;;
4686;SDS011;2357;47.316;-1.348;2024-02-21T10:35:28;18.43;;;4.00;;
4686;SDS011;2357;47.316;-1.348;2024-02-21T10:37:54;17.53;;;3.70;;
4686;SDS011;2357;47.316;-1.348;2024-02-21T10:40:22;17.37;;;4.93;;
4686;SDS011;2357;47.316;-1.348;2024-02-21T10:42:48;10.30;;;3.27;;
4686;SDS011;2357;47.316;-1.348;2024-02-21T10:45:16;13.97;;;4.00;;
4686;SDS011;2357;47.316;-1.348;2024-02-21T10:47:43;14.77;;;4.00;;
4686;SDS011;2357;47.316;-1.348;2024-02-21T10:50:13;6.43;;;3.07;;
4686;SDS011;2357;47.316;-1.348;2024-02-21T10:52:47;10.37;;;3.30;;
4686;SDS011;2357;47.316;-1.348;2024-02-21T10:56:01;13.50;;;4.23;;
4686;SDS011;2357;47.316;-1.348;2024-02-21T10:58:00;17.17;;;3.50;;
4686;SDS011;2357;47.316;-1.348;2024-02-21T11:00:28;21.23;;;5.57;;
4686;SDS011;2357;47.316;-1.348;2024-02-21T11:02:56;16.00;;;3.93;;
4686;SDS011;2357;47.316;-1.348;2024-02-21T11:05:23;10.53;;;4.20;;
4686;SDS011;2357;47.316;-1.348;2024-02-21T11:07:49;12.50;;;4.27;;
4686;SDS011;2357;47.316;-1.348;2024-02-21T11:10:24;12.87;;;4.10;;
4686;SDS011;2357;47.316;-1.348;2024-02-21T11:13:08;21.83;;;4.90;;
4686;SDS011;2357;47.316;-1.348;2024-02-21T11:15:34;10.60;;;4.10;;
4686;SDS011;2357;47.316;-1.348;2024-02-21T11:18:00;12.67;;;3.93;;
4686;SDS011;2357;47.316;-1.348;2024-02-21T11:20:36;8.30;;;3.40;;
4686;SDS011;2357;47.316;-1.348;2024-02-21T11:23:03;16.90;;;4.40;;
4686;SDS011;2357;47.316;-1.348;2024-02-21T11:25:29;14.27;;;4.00;;
4686;SDS011;2357;47.316;-1.348;2024-02-21T11:28:00;15.53;;;4.50;;
4686;SDS011;2357;47.316;-1.348;2024-02-21T11:30:27;19.07;;;4.40;;
4686;SDS011;2357;47.316;-1.348;2024-02-21T11:33:02;18.83;;;4.90;;
4686;SDS011;2357;47.316;-1.348;2024-02-21T11:35:32;12.57;;;5.30;;
4686;SDS011;2357;47.316;-1.348;2024-02-21T11:38:08;8.73;;;3.67;;
4686;SDS011;2357;47.316;-1.348;2024-02-21T11:40:35;16.70;;;3.93;;
4686;SDS011;2357;47.316;-1.348;2024-02-21T11:43:01;12.13;;;3.60;;
4686;SDS011;2357;47.316;-1.348;2024-02-21T11:45:27;9.17;;;4.30;;
4686;SDS011;2357;47.316;-1.348;2024-02-21T11:47:53;13.20;;;4.43;;
4686;SDS011;2357;47.316;-1.348;2024-02-21T11:50:19;13.10;;;4.10;;
4686;SDS011;2357;47.316;-1.348;2024-02-21T11:52:45;20.97;;;4.60;;
4686;SDS011;2357;47.316;-1.348;2024-02-21T11:55:11;21.97;;;5.50;;
4686;SDS011;2357;47.316;-1.348;2024-02-21T11:57:37;17.20;;;4.97;;
4686;SDS011;2357;47.316;-1.348;2024-02-21T12:02:40;12.73;;;4.47;;
4686;SDS011;2357;47.316;-1.348;2024-02-21T12:05:06;16.57;;;4.07;;
4686;SDS011;2357;47.316;-1.348;2024-02-21T12:07:33;13.90;;;3.63;;
4686;SDS011;2357;47.316;-1.348;2024-02-21T12:10:00;11.80;;;3.63;;
4686;SDS011;2357;47.316;-1.348;2024-02-21T12:12:26;10.17;;;3.20;;
4686;SDS011;2357;47.316;-1.348;2024-02-21T12:14:55;11.37;;;3.33;;
4686;SDS011;2357;47.316;-1.348;2024-02-21T12:17:23;16.87;;;3.77;;
4686;SDS011;2357;47.316;-1.348;2024-02-21T12:19:50;16.50;;;3.07;;
4686;SDS011;2357;47.316;-1.348;2024-02-21T12:22:19;8.20;;;3.13;;
4686;SDS011;2357;47.316;-1.348;2024-02-21T12:24:45;17.40;;;3.50;;
4686;SDS011;2357;47.316;-1.348;2024-02-21T12:27:13;13.33;;;4.03;;
4686;SDS011;2357;47.316;-1.348;2024-02-21T12:29:39;12.10;;;3.30;;
4686;SDS011;2357;47.316;-1.348;2024-02-21T12:32:05;21.37;;;4.07;;
4686;SDS011;2357;47.316;-1.348;2024-02-21T12:34:31;11.03;;;3.10;;
4686;SDS011;2357;47.316;-1.348;2024-02-21T12:36:57;15.53;;;3.20;;
4686;SDS011;2357;47.316;-1.348;2024-02-21T12:39:24;13.67;;;2.97;;
4686;SDS011;2357;47.316;-1.348;2024-02-21T12:41:53;11.03;;;3.17;;
4686;SDS011;2357;47.316;-1.348;2024-02-21T12:44:21;17.83;;;3.17;;
4686;SDS011;2357;47.316;-1.348;2024-02-21T12:46:47;11.37;;;3.10;;
4686;SDS011;2357;47.316;-1.348;2024-02-21T12:49:17;11.17;;;3.73;;
4686;SDS011;2357;47.316;-1.348;2024-02-21T12:51:43;13.90;;;3.00;;
4686;SDS011;2357;47.316;-1.348;2024-02-21T12:54:11;9.57;;;2.77;;
4686;SDS011;2357;47.316;-1.348;2024-02-21T12:56:37;21.90;;;4.23;;
4686;SDS011;2357;47.316;-1.348;2024-02-21T12:59:04;7.97;;;3.13;;
4686;SDS011;2357;47.316;-1.348;2024-02-21T13:01:34;9.63;;;2.53;;
4686;SDS011;2357;47.316;-1.348;2024-02-21T13:04:00;9.80;;;2.60;;
4686;SDS011;2357;47.316;-1.348;2024-02-21T13:06:26;16.53;;;3.33;;
4686;SDS011;2357;47.316;-1.348;2024-02-21T13:08:52;15.93;;;2.97;;
4686;SDS011;2357;47.316;-1.348;2024-02-21T13:11:18;8.40;;;2.73;;
4686;SDS011;2357;47.316;-1.348;2024-02-21T13:13:45;9.90;;;3.10;;
4686;SDS011;2357;47.316;-1.348;2024-02-21T13:16:11;9.57;;;2.30;;
4686;SDS011;2357;47.316;-1.348;2024-02-21T13:18:37;5.63;;;1.80;;
4686;SDS011;2357;47.316;-1.348;2024-02-21T13:21:04;13.23;;;2.10;;
4686;SDS011;2357;47.316;-1.348;2024-02-21T13:23:31;6.27;;;1.87;;
4686;SDS011;2357;47.316;-1.348;2024-02-21T13:25:57;6.50;;;2.07;;
4686;SDS011;2357;47.316;-1.348;2024-02-21T13:28:23;8.80;;;2.93;;
4686;SDS011;2357;47.316;-1.348;2024-02-21T13:30:49;13.73;;;3.00;;
4686;SDS011;2357;47.316;-1.348;2024-02-21T13:33:15;6.93;;;2.00;;
4686;SDS011;2357;47.316;-1.348;2024-02-21T13:35:42;7.97;;;2.13;;
4686;SDS011;2357;47.316;-1.348;2024-02-21T13:38:08;7.50;;;2.03;;
4686;SDS011;2357;47.316;-1.348;2024-02-21T13:40:35;7.32;;;2.40;;
4686;SDS011;2357;47.316;-1.348;2024-02-21T13:43:01;9.37;;;1.93;;
4686;SDS011;2357;47.316;-1.348;2024-02-21T13:45:27;4.97;;;2.00;;
4686;SDS011;2357;47.316;-1.348;2024-02-21T13:47:53;5.10;;;1.77;;
4686;SDS011;2357;47.316;-1.348;2024-02-21T13:50:19;6.87;;;2.07;;
4686;SDS011;2357;47.316;-1.348;2024-02-21T13:52:45;4.77;;;2.10;;
4686;SDS011;2357;47.316;-1.348;2024-02-21T13:55:11;10.77;;;2.60;;
4686;SDS011;2357;47.316;-1.348;2024-02-21T13:57:37;10.17;;;2.17;;
4686;SDS011;2357;47.316;-1.348;2024-02-21T14:00:04;7.57;;;2.13;;
4686;SDS011;2357;47.316;-1.348;2024-02-21T14:02:30;9.43;;;2.30;;
4686;SDS011;2357;47.316;-1.348;2024-02-21T14:04:56;7.20;;;2.20;;
4686;SDS011;2357;47.316;-1.348;2024-02-21T14:07:22;9.87;;;2.90;;
4686;SDS011;2357;47.316;-1.348;2024-02-21T14:09:48;7.37;;;2.37;;
4686;SDS011;2357;47.316;-1.348;2024-02-21T14:12:15;5.17;;;2.20;;
4686;SDS011;2357;47.316;-1.348;2024-02-21T14:14:43;10.83;;;2.97;;
4686;SDS011;2357;47.316;-1.348;2024-02-21T14:17:09;15.43;;;3.97;;
4686;SDS011;2357;47.316;-1.348;2024-02-21T14:19:35;8.90;;;3.40;;
4686;SDS011;2357;47.316;-1.348;2024-02-21T14:22:01;4.37;;;2.40;;
4686;SDS011;2357;47.316;-1.348;2024-02-21T14:24:27;9.70;;;2.80;;
4686;SDS011;2357;47.316;-1.348;2024-02-21T14:26:53;11.30;;;3.70;;
4686;SDS011;2357;47.316;-1.348;2024-02-21T14:29:20;5.00;;;2.57;;
4686;SDS011;2357;47.316;-1.348;2024-02-21T14:31:46;15.90;;;2.83;;
4686;SDS011;2357;47.316;-1.348;2024-02-21T14:34:12;6.70;;;2.93;;
4686;SDS011;2357;47.316;-1.348;2024-02-21T14:36:38;12.17;;;3.60;;
4686;SDS011;2357;47.316;-1.348;2024-02-21T14:39:05;9.97;;;3.50;;
4686;SDS011;2357;47.316;-1.348;2024-02-21T14:41:32;13.90;;;4.43;;
4686;SDS011;2357;47.316;-1.348;2024-02-21T14:44:00;15.53;;;3.90;;
4686;SDS011;2357;47.316;-1.348;2024-02-21T14:46:27;11.40;;;4.30;;
4686;SDS011;2357;47.316;-1.348;2024-02-21T14:48:54;22.60;;;6.57;;
4686;SDS011;2357;47.316;-1.348;2024-02-21T14:51:20;13.77;;;5.40;;
4686;SDS011;2357;47.316;-1.348;2024-02-21T14:53:46;14.47;;;5.13;;
4686;SDS011;2357;47.316;-1.348;2024-02-21T14:56:12;15.53;;;4.57;;
4686;SDS011;2357;47.316;-1.348;2024-02-21T14:58:39;9.67;;;3.67;;
4686;SDS011;2357;47.316;-1.348;2024-02-21T15:01:06;7.77;;;4.07;;